sensor_id;sensor_type;location;lat;lon;timestamp;P1;durP1;ratioP1;P2;durP2;ratioP2
6842;SDS011;3460;52.028;8.916;2023-07-20T00:01:50;6.70;;;2.00;;
6842;SDS011;3460;52.028;8.916;2023-07-20T00:04:17;3.43;;;2.10;;
6842;SDS011;3460;52.028;8.916;2023-07-20T00:06:45;5.37;;;2.20;;
6842;SDS011;3460;52.028;8.916;2023-07-20T00:09:12;3.53;;;2.13;;
6842;SDS011;3460;52.028;8.916;2023-07-20T00:11:39;5.63;;;2.00;;
6842;SDS011;3460;52.028;8.916;2023-07-20T00:14:06;3.60;;;2.10;;
6842;SDS011;3460;52.028;8.916;2023-07-20T00:16:33;4.40;;;2.07;;
6842;SDS011;3460;52.028;8.916;2023-07-20T00:19:00;5.23;;;1.93;;
6842;SDS011;3460;52.028;8.916;2023-07-20T00:21:26;3.53;;;1.87;;
6842;SDS011;3460;52.028;8.916;2023-07-20T00:23:54;4.57;;;2.03;;
6842;SDS011;3460;52.028;8.916;2023-07-20T00:26:21;7.93;;;1.80;;
6842;SDS011;3460;52.028;8.916;2023-07-20T00:28:49;3.70;;;1.70;;
6842;SDS011;3460;52.028;8.916;2023-07-20T00:31:17;3.87;;;1.87;;
6842;SDS011;3460;52.028;8.916;2023-07-20T00:33:44;4.77;;;2.13;;
6842;SDS011;3460;52.028;8.916;2023-07-20T00:36:11;5.10;;;1.97;;
6842;SDS011;3460;52.028;8.916;2023-07-20T00:38:37;5.73;;;2.10;;
6842;SDS011;3460;52.028;8.916;2023-07-20T00:41:05;6.70;;;2.00;;
6842;SDS011;3460;52.028;8.916;2023-07-20T00:43:32;2.47;;;1.77;;
6842;SDS011;3460;52.028;8.916;2023-07-20T00:45:59;5.40;;;2.00;;
6842;SDS011;3460;52.028;8.916;2023-07-20T00:48:27;6.90;;;2.33;;
6842;SDS011;3460;52.028;8.916;2023-07-20T00:50:55;6.30;;;2.87;;
6842;SDS011;3460;52.028;8.916;2023-07-20T00:53:22;8.13;;;2.57;;
6842;SDS011;3460;52.028;8.916;2023-07-20T00:55:49;13.20;;;2.93;;
6842;SDS011;3460;52.028;8.916;2023-07-20T00:58:17;4.80;;;2.20;;
6842;SDS011;3460;52.028;8.916;2023-07-20T01:00:44;6.03;;;2.60;;
6842;SDS011;3460;52.028;8.916;2023-07-20T01:03:11;2.57;;;2.37;;
6842;SDS011;3460;52.028;8.916;2023-07-20T01:05:40;9.27;;;2.87;;
6842;SDS011;3460;52.028;8.916;2023-07-20T01:08:15;5.50;;;2.63;;
6842;SDS011;3460;52.028;8.916;2023-07-20T01:10:51;10.30;;;2.70;;
6842;SDS011;3460;52.028;8.916;2023-07-20T01:13:24;7.23;;;2.90;;
6842;SDS011;3460;52.028;8.916;2023-07-20T01:15:57;4.00;;;2.57;;
6842;SDS011;3460;52.028;8.916;2023-07-20T01:18:26;5.07;;;2.50;;
6842;SDS011;3460;52.028;8.916;2023-07-20T01:20:53;7.03;;;3.10;;
6842;SDS011;3460;52.028;8.916;2023-07-20T01:23:28;7.00;;;2.50;;
6842;SDS011;3460;52.028;8.916;2023-07-20T01:26:12;4.67;;;2.47;;
6842;SDS011;3460;52.028;8.916;2023-07-20T01:29:09;3.77;;;2.40;;
6842;SDS011;3460;52.028;8.916;2023-07-20T01:31:45;4.93;;;1.90;;
6842;SDS011;3460;52.028;8.916;2023-07-20T01:34:15;4.40;;;2.70;;
6842;SDS011;3460;52.028;8.916;2023-07-20T01:36:44;7.67;;;2.63;;
6842;SDS011;3460;52.028;8.916;2023-07-20T01:39:12;7.23;;;2.07;;
6842;SDS011;3460;52.028;8.916;2023-07-20T01:41:39;11.77;;;2.53;;
6842;SDS011;3460;52.028;8.916;2023-07-20T01:44:06;6.57;;;2.10;;
6842;SDS011;3460;52.028;8.916;2023-07-20T01:46:33;4.10;;;2.10;;
6842;SDS011;3460;52.028;8.916;2023-07-20T01:49:01;3.13;;;2.20;;
6842;SDS011;3460;52.028;8.916;2023-07-20T01:51:28;4.03;;;2.10;;
6842;SDS011;3460;52.028;8.916;2023-07-20T01:53:55;6.87;;;2.10;;
6842;SDS011;3460;52.028;8.916;2023-07-20T01:56:22;3.47;;;1.87;;
6842;SDS011;3460;52.028;8.916;2023-07-20T01:58:49;4.37;;;1.80;;
6842;SDS011;3460;52.028;8.916;2023-07-20T02:01:16;7.10;;;2.10;;
6842;SDS011;3460;52.028;8.916;2023-07-20T02:03:42;2.50;;;1.83;;
6842;SDS011;3460;52.028;8.916;2023-07-20T02:06:10;4.20;;;1.90;;
6842;SDS011;3460;52.028;8.916;2023-07-20T02:08:37;5.27;;;1.90;;
6842;SDS011;3460;52.028;8.916;2023-07-20T02:11:04;8.60;;;1.97;;
6842;SDS011;3460;52.028;8.916;2023-07-20T02:13:31;5.97;;;2.47;;
6842;SDS011;3460;52.028;8.916;2023-07-20T02:15:58;3.23;;;2.40;;
6842;SDS011;3460;52.028;8.916;2023-07-20T02:18:24;4.53;;;2.10;;
6842;SDS011;3460;52.028;8.916;2023-07-20T02:20:52;7.37;;;2.40;;
6842;SDS011;3460;52.028;8.916;2023-07-20T02:23:21;2.93;;;2.00;;
6842;SDS011;3460;52.028;8.916;2023-07-20T02:25:48;4.00;;;2.00;;
6842;SDS011;3460;52.028;8.916;2023-07-20T02:28:15;5.20;;;2.30;;
6842;SDS011;3460;52.028;8.916;2023-07-20T02:30:42;4.43;;;1.90;;
6842;SDS011;3460;52.028;8.916;2023-07-20T02:33:09;5.97;;;2.03;;
6842;SDS011;3460;52.028;8.916;2023-07-20T02:35:36;4.40;;;2.43;;
6842;SDS011;3460;52.028;8.916;2023-07-20T02:38:02;3.97;;;2.30;;
6842;SDS011;3460;52.028;8.916;2023-07-20T02:40:31;6.60;;;2.90;;
6842;SDS011;3460;52.028;8.916;2023-07-20T02:42:57;6.80;;;2.77;;
6842;SDS011;3460;52.028;8.916;2023-07-20T02:45:24;8.33;;;2.53;;
6842;SDS011;3460;52.028;8.916;2023-07-20T02:47:51;13.77;;;2.67;;
6842;SDS011;3460;52.028;8.916;2023-07-20T02:50:18;8.17;;;2.60;;
6842;SDS011;3460;52.028;8.916;2023-07-20T02:52:45;10.20;;;2.77;;
6842;SDS011;3460;52.028;8.916;2023-07-20T02:55:12;10.53;;;3.80;;
6842;SDS011;3460;52.028;8.916;2023-07-20T02:57:40;11.90;;;4.30;;
6842;SDS011;3460;52.028;8.916;2023-07-20T03:00:07;10.57;;;4.33;;
6842;SDS011;3460;52.028;8.916;2023-07-20T03:02:36;7.80;;;4.30;;
6842;SDS011;3460;52.028;8.916;2023-07-20T03:05:03;8.77;;;5.00;;
6842;SDS011;3460;52.028;8.916;2023-07-20T03:07:32;8.60;;;5.17;;
6842;SDS011;3460;52.028;8.916;2023-07-20T03:09:59;8.93;;;5.30;;
6842;SDS011;3460;52.028;8.916;2023-07-20T03:12:25;11.77;;;5.90;;
6842;SDS011;3460;52.028;8.916;2023-07-20T03:14:54;8.20;;;5.57;;
6842;SDS011;3460;52.028;8.916;2023-07-20T03:17:22;7.57;;;6.23;;
6842;SDS011;3460;52.028;8.916;2023-07-20T03:19:48;8.07;;;6.40;;
6842;SDS011;3460;52.028;8.916;2023-07-20T03:22:15;10.73;;;6.10;;
6842;SDS011;3460;52.028;8.916;2023-07-20T03:24:42;7.13;;;5.77;;
6842;SDS011;3460;52.028;8.916;2023-07-20T03:27:09;6.83;;;6.13;;
6842;SDS011;3460;52.028;8.916;2023-07-20T03:29:36;9.67;;;6.50;;
6842;SDS011;3460;52.028;8.916;2023-07-20T03:32:04;13.00;;;6.43;;
6842;SDS011;3460;52.028;8.916;2023-07-20T03:34:32;12.47;;;6.90;;
6842;SDS011;3460;52.028;8.916;2023-07-20T03:36:59;9.13;;;6.83;;
6842;SDS011;3460;52.028;8.916;2023-07-20T03:39:26;10.53;;;7.07;;
6842;SDS011;3460;52.028;8.916;2023-07-20T03:41:52;10.97;;;6.23;;
6842;SDS011;3460;52.028;8.916;2023-07-20T03:44:20;8.83;;;6.80;;
6842;SDS011;3460;52.028;8.916;2023-07-20T03:46:47;7.07;;;4.40;;
6842;SDS011;3460;52.028;8.916;2023-07-20T03:49:15;8.27;;;3.60;;
6842;SDS011;3460;52.028;8.916;2023-07-20T03:51:43;4.53;;;2.70;;
6842;SDS011;3460;52.028;8.916;2023-07-20T03:54:09;5.10;;;3.33;;
6842;SDS011;3460;52.028;8.916;2023-07-20T03:56:36;6.47;;;2.70;;
6842;SDS011;3460;52.028;8.916;2023-07-20T03:59:03;3.93;;;2.80;;
6842;SDS011;3460;52.028;8.916;2023-07-20T04:01:30;4.97;;;2.77;;
6842;SDS011;3460;52.028;8.916;2023-07-20T04:04:01;5.00;;;3.10;;
6842;SDS011;3460;52.028;8.916;2023-07-20T04:06:32;4.77;;;2.77;;
6842;SDS011;3460;52.028;8.916;2023-07-20T04:08:58;4.70;;;2.60;;
6842;SDS011;3460;52.028;8.916;2023-07-20T04:11:25;4.77;;;2.70;;
6842;SDS011;3460;52.028;8.916;2023-07-20T04:13:52;5.03;;;1.97;;
6842;SDS011;3460;52.028;8.916;2023-07-20T04:16:19;6.27;;;2.00;;
6842;SDS011;3460;52.028;8.916;2023-07-20T04:18:46;2.83;;;1.80;;
6842;SDS011;3460;52.028;8.916;2023-07-20T04:21:13;3.07;;;1.70;;
6842;SDS011;3460;52.028;8.916;2023-07-20T04:23:41;5.37;;;2.33;;
6842;SDS011;3460;52.028;8.916;2023-07-20T04:26:08;4.07;;;2.57;;
6842;SDS011;3460;52.028;8.916;2023-07-20T04:28:34;4.47;;;2.40;;
6842;SDS011;3460;52.028;8.916;2023-07-20T04:31:10;4.77;;;2.87;;
6842;SDS011;3460;52.028;8.916;2023-07-20T04:33:38;3.70;;;2.43;;
6842;SDS011;3460;52.028;8.916;2023-07-20T04:36:05;4.97;;;3.07;;
6842;SDS011;3460;52.028;8.916;2023-07-20T04:38:32;3.23;;;2.80;;
6842;SDS011;3460;52.028;8.916;2023-07-20T04:41:00;4.60;;;3.33;;
6842;SDS011;3460;52.028;8.916;2023-07-20T04:43:28;4.00;;;2.90;;
6842;SDS011;3460;52.028;8.916;2023-07-20T04:45:56;5.27;;;3.47;;
6842;SDS011;3460;52.028;8.916;2023-07-20T04:48:23;8.50;;;3.60;;
6842;SDS011;3460;52.028;8.916;2023-07-20T04:50:50;4.10;;;3.70;;
6842;SDS011;3460;52.028;8.916;2023-07-20T04:53:17;5.53;;;3.63;;
6842;SDS011;3460;52.028;8.916;2023-07-20T04:55:47;5.23;;;3.43;;
6842;SDS011;3460;52.028;8.916;2023-07-20T04:58:17;5.27;;;3.83;;
6842;SDS011;3460;52.028;8.916;2023-07-20T05:00:44;8.13;;;3.53;;
6842;SDS011;3460;52.028;8.916;2023-07-20T05:03:11;4.10;;;3.70;;
6842;SDS011;3460;52.028;8.916;2023-07-20T05:05:38;4.20;;;3.63;;
6842;SDS011;3460;52.028;8.916;2023-07-20T05:08:05;9.70;;;3.93;;
6842;SDS011;3460;52.028;8.916;2023-07-20T05:10:32;5.63;;;3.80;;
6842;SDS011;3460;52.028;8.916;2023-07-20T05:12:59;5.30;;;4.40;;
6842;SDS011;3460;52.028;8.916;2023-07-20T05:15:27;4.37;;;3.90;;
6842;SDS011;3460;52.028;8.916;2023-07-20T05:17:53;6.13;;;4.20;;
6842;SDS011;3460;52.028;8.916;2023-07-20T05:20:20;4.73;;;4.33;;
6842;SDS011;3460;52.028;8.916;2023-07-20T05:22:47;4.13;;;3.73;;
6842;SDS011;3460;52.028;8.916;2023-07-20T05:25:14;3.80;;;3.43;;
6842;SDS011;3460;52.028;8.916;2023-07-20T05:27:43;5.63;;;3.33;;
6842;SDS011;3460;52.028;8.916;2023-07-20T05:30:11;4.43;;;2.93;;
6842;SDS011;3460;52.028;8.916;2023-07-20T05:32:39;4.10;;;2.63;;
6842;SDS011;3460;52.028;8.916;2023-07-20T05:35:07;3.20;;;2.90;;
6842;SDS011;3460;52.028;8.916;2023-07-20T05:37:36;2.80;;;2.50;;
6842;SDS011;3460;52.028;8.916;2023-07-20T05:40:04;3.00;;;2.70;;
6842;SDS011;3460;52.028;8.916;2023-07-20T05:42:32;3.67;;;2.60;;
6842;SDS011;3460;52.028;8.916;2023-07-20T05:44:59;4.53;;;2.80;;
6842;SDS011;3460;52.028;8.916;2023-07-20T05:47:26;2.97;;;2.60;;
6842;SDS011;3460;52.028;8.916;2023-07-20T05:49:55;2.50;;;2.30;;
6842;SDS011;3460;52.028;8.916;2023-07-20T05:52:21;5.97;;;2.50;;
6842;SDS011;3460;52.028;8.916;2023-07-20T05:54:48;2.20;;;2.00;;
6842;SDS011;3460;52.028;8.916;2023-07-20T05:57:15;2.50;;;2.10;;
6842;SDS011;3460;52.028;8.916;2023-07-20T05:59:42;2.97;;;2.37;;
6842;SDS011;3460;52.028;8.916;2023-07-20T06:02:09;2.50;;;2.30;;
6842;SDS011;3460;52.028;8.916;2023-07-20T06:04:36;3.53;;;2.23;;
6842;SDS011;3460;52.028;8.916;2023-07-20T06:07:06;4.30;;;2.23;;
6842;SDS011;3460;52.028;8.916;2023-07-20T06:09:34;2.23;;;2.00;;
6842;SDS011;3460;52.028;8.916;2023-07-20T06:12:01;3.00;;;2.50;;
6842;SDS011;3460;52.028;8.916;2023-07-20T06:14:28;3.10;;;2.33;;
6842;SDS011;3460;52.028;8.916;2023-07-20T06:16:54;4.20;;;2.40;;
6842;SDS011;3460;52.028;8.916;2023-07-20T06:19:21;2.60;;;2.23;;
6842;SDS011;3460;52.028;8.916;2023-07-20T06:21:48;3.17;;;2.30;;
6842;SDS011;3460;52.028;8.916;2023-07-20T06:24:17;4.00;;;2.03;;
6842;SDS011;3460;52.028;8.916;2023-07-20T06:26:43;3.40;;;1.80;;
6842;SDS011;3460;52.028;8.916;2023-07-20T06:29:10;3.57;;;1.70;;
6842;SDS011;3460;52.028;8.916;2023-07-20T06:31:37;2.37;;;1.70;;
6842;SDS011;3460;52.028;8.916;2023-07-20T06:34:04;3.10;;;1.60;;
6842;SDS011;3460;52.028;8.916;2023-07-20T06:36:31;2.53;;;1.70;;
6842;SDS011;3460;52.028;8.916;2023-07-20T06:38:58;5.07;;;1.47;;
6842;SDS011;3460;52.028;8.916;2023-07-20T06:41:26;1.60;;;1.50;;
6842;SDS011;3460;52.028;8.916;2023-07-20T06:43:53;2.83;;;1.67;;
6842;SDS011;3460;52.028;8.916;2023-07-20T06:46:23;3.93;;;1.63;;
6842;SDS011;3460;52.028;8.916;2023-07-20T06:48:50;2.53;;;1.70;;
6842;SDS011;3460;52.028;8.916;2023-07-20T06:51:17;2.90;;;1.70;;
6842;SDS011;3460;52.028;8.916;2023-07-20T06:53:44;1.40;;;1.20;;
6842;SDS011;3460;52.028;8.916;2023-07-20T06:56:11;3.27;;;1.70;;
6842;SDS011;3460;52.028;8.916;2023-07-20T06:58:39;1.93;;;1.50;;
6842;SDS011;3460;52.028;8.916;2023-07-20T07:01:07;1.73;;;1.40;;
6842;SDS011;3460;52.028;8.916;2023-07-20T07:03:34;1.70;;;1.40;;
6842;SDS011;3460;52.028;8.916;2023-07-20T07:06:01;1.80;;;1.50;;
6842;SDS011;3460;52.028;8.916;2023-07-20T07:08:28;1.67;;;1.30;;
6842;SDS011;3460;52.028;8.916;2023-07-20T07:10:55;1.77;;;1.30;;
6842;SDS011;3460;52.028;8.916;2023-07-20T07:13:22;1.13;;;1.00;;
6842;SDS011;3460;52.028;8.916;2023-07-20T07:15:51;1.93;;;1.30;;
6842;SDS011;3460;52.028;8.916;2023-07-20T07:18:18;1.47;;;1.37;;
6842;SDS011;3460;52.028;8.916;2023-07-20T07:20:50;1.77;;;1.50;;
6842;SDS011;3460;52.028;8.916;2023-07-20T07:23:17;3.50;;;1.47;;
6842;SDS011;3460;52.028;8.916;2023-07-20T07:25:44;2.57;;;1.53;;
6842;SDS011;3460;52.028;8.916;2023-07-20T07:28:11;4.00;;;1.37;;
6842;SDS011;3460;52.028;8.916;2023-07-20T07:30:38;1.30;;;1.20;;
6842;SDS011;3460;52.028;8.916;2023-07-20T07:33:06;3.60;;;1.30;;
6842;SDS011;3460;52.028;8.916;2023-07-20T07:35:33;1.70;;;1.40;;
6842;SDS011;3460;52.028;8.916;2023-07-20T07:38:00;2.03;;;1.10;;
6842;SDS011;3460;52.028;8.916;2023-07-20T07:40:27;2.53;;;1.47;;
6842;SDS011;3460;52.028;8.916;2023-07-20T07:42:54;3.43;;;1.40;;
6842;SDS011;3460;52.028;8.916;2023-07-20T07:45:20;2.40;;;1.10;;
6842;SDS011;3460;52.028;8.916;2023-07-20T07:47:47;4.70;;;3.93;;
6842;SDS011;3460;52.028;8.916;2023-07-20T07:50:15;2.23;;;1.33;;
6842;SDS011;3460;52.028;8.916;2023-07-20T07:52:42;1.97;;;1.00;;
6842;SDS011;3460;52.028;8.916;2023-07-20T07:55:09;1.87;;;1.20;;
6842;SDS011;3460;52.028;8.916;2023-07-20T07:57:36;2.17;;;1.00;;
6842;SDS011;3460;52.028;8.916;2023-07-20T08:00:03;1.17;;;0.90;;
6842;SDS011;3460;52.028;8.916;2023-07-20T08:02:35;1.73;;;1.03;;
6842;SDS011;3460;52.028;8.916;2023-07-20T08:05:02;2.33;;;0.97;;
6842;SDS011;3460;52.028;8.916;2023-07-20T08:07:31;1.00;;;0.90;;
6842;SDS011;3460;52.028;8.916;2023-07-20T08:09:57;1.40;;;1.00;;
6842;SDS011;3460;52.028;8.916;2023-07-20T08:12:25;12.17;;;9.00;;
6842;SDS011;3460;52.028;8.916;2023-07-20T08:14:52;3.33;;;2.20;;
6842;SDS011;3460;52.028;8.916;2023-07-20T08:17:19;1.93;;;0.90;;
6842;SDS011;3460;52.028;8.916;2023-07-20T08:19:46;1.53;;;1.13;;
6842;SDS011;3460;52.028;8.916;2023-07-20T08:22:13;2.17;;;0.97;;
6842;SDS011;3460;52.028;8.916;2023-07-20T08:24:42;2.10;;;0.70;;
6842;SDS011;3460;52.028;8.916;2023-07-20T08:27:09;2.70;;;0.80;;
6842;SDS011;3460;52.028;8.916;2023-07-20T08:29:36;0.80;;;0.80;;
6842;SDS011;3460;52.028;8.916;2023-07-20T08:32:03;0.77;;;0.77;;
6842;SDS011;3460;52.028;8.916;2023-07-20T08:34:30;3.80;;;0.90;;
6842;SDS011;3460;52.028;8.916;2023-07-20T08:36:58;0.70;;;0.70;;
6842;SDS011;3460;52.028;8.916;2023-07-20T08:39:25;1.10;;;0.60;;
6842;SDS011;3460;52.028;8.916;2023-07-20T08:41:53;0.90;;;0.70;;
6842;SDS011;3460;52.028;8.916;2023-07-20T08:44:21;0.83;;;0.70;;
6842;SDS011;3460;52.028;8.916;2023-07-20T08:46:48;1.43;;;0.70;;
6842;SDS011;3460;52.028;8.916;2023-07-20T08:49:15;1.03;;;0.80;;
6842;SDS011;3460;52.028;8.916;2023-07-20T08:51:43;2.20;;;0.67;;
6842;SDS011;3460;52.028;8.916;2023-07-20T08:54:12;1.17;;;0.63;;
6842;SDS011;3460;52.028;8.916;2023-07-20T08:56:40;2.40;;;0.60;;
6842;SDS011;3460;52.028;8.916;2023-07-20T08:59:10;1.00;;;0.63;;
6842;SDS011;3460;52.028;8.916;2023-07-20T09:01:38;0.83;;;0.40;;
6842;SDS011;3460;52.028;8.916;2023-07-20T09:04:06;1.07;;;0.50;;
6842;SDS011;3460;52.028;8.916;2023-07-20T09:06:33;1.10;;;0.60;;
6842;SDS011;3460;52.028;8.916;2023-07-20T09:09:01;1.60;;;0.80;;
6842;SDS011;3460;52.028;8.916;2023-07-20T09:11:29;0.50;;;0.50;;
6842;SDS011;3460;52.028;8.916;2023-07-20T09:14:03;0.90;;;0.80;;
6842;SDS011;3460;52.028;8.916;2023-07-20T09:16:32;1.77;;;0.53;;
6842;SDS011;3460;52.028;8.916;2023-07-20T09:18:59;0.90;;;0.67;;
6842;SDS011;3460;52.028;8.916;2023-07-20T09:21:28;0.57;;;0.53;;
6842;SDS011;3460;52.028;8.916;2023-07-20T09:23:56;0.83;;;0.60;;
6842;SDS011;3460;52.028;8.916;2023-07-20T09:26:23;1.73;;;0.60;;
6842;SDS011;3460;52.028;8.916;2023-07-20T09:28:51;2.40;;;0.70;;
6842;SDS011;3460;52.028;8.916;2023-07-20T09:31:20;0.73;;;0.50;;
6842;SDS011;3460;52.028;8.916;2023-07-20T09:33:50;0.80;;;0.50;;
6842;SDS011;3460;52.028;8.916;2023-07-20T09:36:18;1.37;;;0.50;;
6842;SDS011;3460;52.028;8.916;2023-07-20T09:38:46;3.07;;;0.60;;
6842;SDS011;3460;52.028;8.916;2023-07-20T09:41:13;2.43;;;0.70;;
6842;SDS011;3460;52.028;8.916;2023-07-20T09:43:40;6.00;;;0.80;;
6842;SDS011;3460;52.028;8.916;2023-07-20T09:46:08;1.23;;;0.60;;
6842;SDS011;3460;52.028;8.916;2023-07-20T09:48:35;1.97;;;0.70;;
6842;SDS011;3460;52.028;8.916;2023-07-20T09:51:03;0.93;;;0.53;;
6842;SDS011;3460;52.028;8.916;2023-07-20T09:53:32;1.73;;;0.80;;
6842;SDS011;3460;52.028;8.916;2023-07-20T09:56:00;1.20;;;0.60;;
6842;SDS011;3460;52.028;8.916;2023-07-20T09:58:28;2.10;;;0.60;;
6842;SDS011;3460;52.028;8.916;2023-07-20T10:00:56;1.23;;;0.80;;
6842;SDS011;3460;52.028;8.916;2023-07-20T10:03:27;1.23;;;0.70;;
6842;SDS011;3460;52.028;8.916;2023-07-20T10:05:56;1.23;;;0.60;;
6842;SDS011;3460;52.028;8.916;2023-07-20T10:08:25;1.67;;;0.80;;
6842;SDS011;3460;52.028;8.916;2023-07-20T10:10:54;0.65;;;0.52;;
6842;SDS011;3460;52.028;8.916;2023-07-20T10:13:25;1.15;;;0.60;;
6842;SDS011;3460;52.028;8.916;2023-07-20T10:15:54;1.42;;;0.68;;
6842;SDS011;3460;52.028;8.916;2023-07-20T10:18:25;1.55;;;0.60;;
6842;SDS011;3460;52.028;8.916;2023-07-20T10:20:56;0.60;;;0.60;;
6842;SDS011;3460;52.028;8.916;2023-07-20T10:23:27;1.13;;;0.60;;
6842;SDS011;3460;52.028;8.916;2023-07-20T10:25:55;1.15;;;0.68;;
6842;SDS011;3460;52.028;8.916;2023-07-20T10:28:24;0.55;;;0.40;;
6842;SDS011;3460;52.028;8.916;2023-07-20T10:30:51;1.90;;;0.60;;
6842;SDS011;3460;52.028;8.916;2023-07-20T10:33:18;0.63;;;0.55;;
6842;SDS011;3460;52.028;8.916;2023-07-20T10:35:52;1.17;;;0.50;;
6842;SDS011;3460;52.028;8.916;2023-07-20T10:38:19;1.27;;;0.65;;
6842;SDS011;3460;52.028;8.916;2023-07-20T10:40:54;3.47;;;2.92;;
6842;SDS011;3460;52.028;8.916;2023-07-20T10:43:22;3.13;;;0.70;;
6842;SDS011;3460;52.028;8.916;2023-07-20T10:45:49;1.17;;;0.50;;
6842;SDS011;3460;52.028;8.916;2023-07-20T10:48:17;0.95;;;0.60;;
6842;SDS011;3460;52.028;8.916;2023-07-20T10:50:46;3.28;;;0.73;;
6842;SDS011;3460;52.028;8.916;2023-07-20T10:53:27;0.75;;;0.50;;
6842;SDS011;3460;52.028;8.916;2023-07-20T10:56:06;0.82;;;0.60;;
6842;SDS011;3460;52.028;8.916;2023-07-20T10:58:34;0.68;;;0.52;;
6842;SDS011;3460;52.028;8.916;2023-07-20T11:01:01;1.83;;;0.50;;
6842;SDS011;3460;52.028;8.916;2023-07-20T11:03:31;0.93;;;0.50;;
6842;SDS011;3460;52.028;8.916;2023-07-20T11:09:04;1.75;;;0.70;;
6842;SDS011;3460;52.028;8.916;2023-07-20T11:11:34;0.77;;;0.70;;
6842;SDS011;3460;52.028;8.916;2023-07-20T11:14:03;2.47;;;0.70;;
6842;SDS011;3460;52.028;8.916;2023-07-20T11:16:38;1.85;;;0.90;;
6842;SDS011;3460;52.028;8.916;2023-07-20T11:19:13;0.98;;;0.70;;
6842;SDS011;3460;52.028;8.916;2023-07-20T11:21:42;3.55;;;0.80;;
6842;SDS011;3460;52.028;8.916;2023-07-20T11:24:10;2.70;;;1.23;;
6842;SDS011;3460;52.028;8.916;2023-07-20T11:26:46;2.20;;;0.75;;
6842;SDS011;3460;52.028;8.916;2023-07-20T11:29:15;3.23;;;1.10;;
6842;SDS011;3460;52.028;8.916;2023-07-20T11:31:43;0.82;;;0.73;;
6842;SDS011;3460;52.028;8.916;2023-07-20T11:34:11;2.27;;;0.90;;
6842;SDS011;3460;52.028;8.916;2023-07-20T11:36:39;1.90;;;0.93;;
6842;SDS011;3460;52.028;8.916;2023-07-20T11:39:07;1.73;;;0.80;;
6842;SDS011;3460;52.028;8.916;2023-07-20T11:41:35;3.67;;;1.00;;
6842;SDS011;3460;52.028;8.916;2023-07-20T11:44:04;2.50;;;1.10;;
6842;SDS011;3460;52.028;8.916;2023-07-20T11:46:32;1.67;;;0.90;;
6842;SDS011;3460;52.028;8.916;2023-07-20T11:49:00;1.00;;;0.80;;
6842;SDS011;3460;52.028;8.916;2023-07-20T11:51:28;1.13;;;0.80;;
6842;SDS011;3460;52.028;8.916;2023-07-20T11:53:55;0.80;;;0.60;;
6842;SDS011;3460;52.028;8.916;2023-07-20T11:56:24;1.13;;;0.75;;
6842;SDS011;3460;52.028;8.916;2023-07-20T11:58:54;3.83;;;3.17;;
6842;SDS011;3460;52.028;8.916;2023-07-20T12:01:22;0.80;;;0.70;;
6842;SDS011;3460;52.028;8.916;2023-07-20T12:03:49;0.68;;;0.60;;
6842;SDS011;3460;52.028;8.916;2023-07-20T12:06:16;1.95;;;0.60;;
6842;SDS011;3460;52.028;8.916;2023-07-20T12:08:43;0.52;;;0.47;;
6842;SDS011;3460;52.028;8.916;2023-07-20T12:11:10;2.08;;;0.57;;
6842;SDS011;3460;52.028;8.916;2023-07-20T12:13:38;0.77;;;0.60;;
6842;SDS011;3460;52.028;8.916;2023-07-20T12:16:11;3.42;;;0.80;;
6842;SDS011;3460;52.028;8.916;2023-07-20T12:18:41;1.20;;;0.60;;
6842;SDS011;3460;52.028;8.916;2023-07-20T12:21:08;1.90;;;0.70;;
6842;SDS011;3460;52.028;8.916;2023-07-20T12:23:37;1.00;;;0.70;;
6842;SDS011;3460;52.028;8.916;2023-07-20T12:26:05;1.13;;;0.65;;
6842;SDS011;3460;52.028;8.916;2023-07-20T12:28:35;3.05;;;0.60;;
6842;SDS011;3460;52.028;8.916;2023-07-20T12:31:05;0.70;;;0.65;;
6842;SDS011;3460;52.028;8.916;2023-07-20T12:33:31;0.52;;;0.45;;
6842;SDS011;3460;52.028;8.916;2023-07-20T12:35:59;1.27;;;0.60;;
6842;SDS011;3460;52.028;8.916;2023-07-20T12:38:26;0.70;;;0.57;;
6842;SDS011;3460;52.028;8.916;2023-07-20T12:40:53;0.82;;;0.60;;
6842;SDS011;3460;52.028;8.916;2023-07-20T12:43:21;1.40;;;0.80;;
6842;SDS011;3460;52.028;8.916;2023-07-20T12:45:48;0.68;;;0.60;;
6842;SDS011;3460;52.028;8.916;2023-07-20T12:48:14;0.90;;;0.60;;
6842;SDS011;3460;52.028;8.916;2023-07-20T12:50:41;3.45;;;0.80;;
6842;SDS011;3460;52.028;8.916;2023-07-20T12:53:09;1.42;;;0.70;;
6842;SDS011;3460;52.028;8.916;2023-07-20T12:55:37;1.38;;;0.80;;
6842;SDS011;3460;52.028;8.916;2023-07-20T12:58:04;1.95;;;1.00;;
6842;SDS011;3460;52.028;8.916;2023-07-20T13:00:31;3.65;;;0.80;;
6842;SDS011;3460;52.028;8.916;2023-07-20T13:02:58;1.35;;;1.00;;
6842;SDS011;3460;52.028;8.916;2023-07-20T13:05:27;1.33;;;0.90;;
6842;SDS011;3460;52.028;8.916;2023-07-20T13:07:54;1.35;;;0.90;;
6842;SDS011;3460;52.028;8.916;2023-07-20T13:10:22;2.85;;;1.17;;
6842;SDS011;3460;52.028;8.916;2023-07-20T13:12:49;1.63;;;1.00;;
6842;SDS011;3460;52.028;8.916;2023-07-20T13:15:16;1.10;;;1.00;;
6842;SDS011;3460;52.028;8.916;2023-07-20T13:17:44;1.88;;;1.13;;
6842;SDS011;3460;52.028;8.916;2023-07-20T13:20:11;1.10;;;1.00;;
6842;SDS011;3460;52.028;8.916;2023-07-20T13:22:38;1.27;;;1.00;;
6842;SDS011;3460;52.028;8.916;2023-07-20T13:25:06;1.27;;;1.10;;
6842;SDS011;3460;52.028;8.916;2023-07-20T13:27:36;1.58;;;1.00;;
6842;SDS011;3460;52.028;8.916;2023-07-20T13:30:03;2.20;;;1.10;;
6842;SDS011;3460;52.028;8.916;2023-07-20T13:32:31;1.58;;;0.93;;
6842;SDS011;3460;52.028;8.916;2023-07-20T13:34:58;1.05;;;0.95;;
6842;SDS011;3460;52.028;8.916;2023-07-20T13:37:25;3.03;;;1.30;;
6842;SDS011;3460;52.028;8.916;2023-07-20T13:39:52;1.40;;;1.10;;
6842;SDS011;3460;52.028;8.916;2023-07-20T13:42:19;1.80;;;1.17;;
6842;SDS011;3460;52.028;8.916;2023-07-20T13:44:48;3.67;;;1.20;;
6842;SDS011;3460;52.028;8.916;2023-07-20T13:47:14;1.70;;;1.35;;
6842;SDS011;3460;52.028;8.916;2023-07-20T13:49:41;1.75;;;1.42;;
6842;SDS011;3460;52.028;8.916;2023-07-20T13:52:09;2.53;;;1.20;;
6842;SDS011;3460;52.028;8.916;2023-07-20T13:54:36;3.47;;;1.40;;
6842;SDS011;3460;52.028;8.916;2023-07-20T13:57:03;1.38;;;1.17;;
6842;SDS011;3460;52.028;8.916;2023-07-20T13:59:31;1.05;;;0.95;;
6842;SDS011;3460;52.028;8.916;2023-07-20T14:01:59;1.10;;;1.00;;
6842;SDS011;3460;52.028;8.916;2023-07-20T14:04:26;1.30;;;1.10;;
6842;SDS011;3460;52.028;8.916;2023-07-20T14:06:54;1.50;;;1.20;;
6842;SDS011;3460;52.028;8.916;2023-07-20T14:09:20;1.42;;;1.00;;
6842;SDS011;3460;52.028;8.916;2023-07-20T14:11:48;2.58;;;1.30;;
6842;SDS011;3460;52.028;8.916;2023-07-20T14:14:14;1.73;;;1.10;;
6842;SDS011;3460;52.028;8.916;2023-07-20T14:16:41;1.02;;;0.80;;
6842;SDS011;3460;52.028;8.916;2023-07-20T14:19:09;1.70;;;1.10;;
6842;SDS011;3460;52.028;8.916;2023-07-20T14:21:37;1.20;;;1.10;;
6842;SDS011;3460;52.028;8.916;2023-07-20T14:24:04;2.17;;;1.10;;
6842;SDS011;3460;52.028;8.916;2023-07-20T14:26:31;2.55;;;1.30;;
6842;SDS011;3460;52.028;8.916;2023-07-20T14:28:58;1.48;;;1.17;;
6842;SDS011;3460;52.028;8.916;2023-07-20T14:31:25;1.33;;;1.05;;
6842;SDS011;3460;52.028;8.916;2023-07-20T14:33:51;2.67;;;1.30;;
6842;SDS011;3460;52.028;8.916;2023-07-20T14:36:20;2.97;;;1.02;;
6842;SDS011;3460;52.028;8.916;2023-07-20T14:38:47;2.15;;;1.13;;
6842;SDS011;3460;52.028;8.916;2023-07-20T14:41:14;2.05;;;1.20;;
6842;SDS011;3460;52.028;8.916;2023-07-20T14:43:41;1.05;;;0.82;;
6842;SDS011;3460;52.028;8.916;2023-07-20T14:46:08;0.98;;;0.88;;
6842;SDS011;3460;52.028;8.916;2023-07-20T14:48:35;2.13;;;1.00;;
6842;SDS011;3460;52.028;8.916;2023-07-20T14:51:02;1.67;;;0.90;;
6842;SDS011;3460;52.028;8.916;2023-07-20T14:53:30;1.65;;;1.10;;
6842;SDS011;3460;52.028;8.916;2023-07-20T14:55:58;1.55;;;1.05;;
6842;SDS011;3460;52.028;8.916;2023-07-20T14:58:26;1.33;;;1.00;;
6842;SDS011;3460;52.028;8.916;2023-07-20T15:00:52;1.75;;;1.00;;
6842;SDS011;3460;52.028;8.916;2023-07-20T15:03:19;2.47;;;0.90;;
6842;SDS011;3460;52.028;8.916;2023-07-20T15:05:46;2.67;;;1.20;;
6842;SDS011;3460;52.028;8.916;2023-07-20T15:08:13;3.22;;;1.13;;
6842;SDS011;3460;52.028;8.916;2023-07-20T15:10:41;2.95;;;1.02;;
6842;SDS011;3460;52.028;8.916;2023-07-20T15:13:11;1.55;;;0.70;;
6842;SDS011;3460;52.028;8.916;2023-07-20T15:15:38;2.40;;;0.80;;
6842;SDS011;3460;52.028;8.916;2023-07-20T15:18:05;1.35;;;0.70;;
6842;SDS011;3460;52.028;8.916;2023-07-20T15:20:32;1.30;;;0.80;;
6842;SDS011;3460;52.028;8.916;2023-07-20T15:22:59;3.28;;;0.90;;